sensor_id;sensor_type;location;lat;lon;timestamp;pressure;altitude;pressure_sealevel;temperature
15062;BMP180;7630;50.306;8.566;2023-07-13T00:01:25;97839.00;;;20.70
15062;BMP180;7630;50.306;8.566;2023-07-13T00:05:26;97849.00;;;21.00
15062;BMP180;7630;50.306;8.566;2023-07-13T00:09:28;97848.00;;;20.80
15062;BMP180;7630;50.306;8.566;2023-07-13T00:13:30;97848.00;;;20.40
15062;BMP180;7630;50.306;8.566;2023-07-13T00:17:31;97844.00;;;20.70
15062;BMP180;7630;50.306;8.566;2023-07-13T00:21:33;97848.00;;;20.60
15062;BMP180;7630;50.306;8.566;2023-07-13T00:25:34;97852.00;;;21.00
15062;BMP180;7630;50.306;8.566;2023-07-13T00:29:36;97855.00;;;20.90
15062;BMP180;7630;50.306;8.566;2023-07-13T00:33:38;97856.00;;;20.90
15062;BMP180;7630;50.306;8.566;2023-07-13T00:37:39;97853.00;;;21.10
15062;BMP180;7630;50.306;8.566;2023-07-13T00:41:40;97852.00;;;21.20
15062;BMP180;7630;50.306;8.566;2023-07-13T00:49:49;97864.00;;;21.10
15062;BMP180;7630;50.306;8.566;2023-07-13T00:53:53;97857.00;;;21.00
15062;BMP180;7630;50.306;8.566;2023-07-13T00:57:55;97867.00;;;21.00
15062;BMP180;7630;50.306;8.566;2023-07-13T01:01:56;97868.00;;;20.60
15062;BMP180;7630;50.306;8.566;2023-07-13T01:05:58;97869.00;;;19.50
15062;BMP180;7630;50.306;8.566;2023-07-13T01:09:59;97873.00;;;20.00
15062;BMP180;7630;50.306;8.566;2023-07-13T01:14:01;97875.00;;;20.70
15062;BMP180;7630;50.306;8.566;2023-07-13T01:18:05;97871.00;;;21.00
15062;BMP180;7630;50.306;8.566;2023-07-13T01:22:18;97878.00;;;20.60
15062;BMP180;7630;50.306;8.566;2023-07-13T01:26:16;97867.00;;;20.60
15062;BMP180;7630;50.306;8.566;2023-07-13T01:30:17;97864.00;;;20.50
15062;BMP180;7630;50.306;8.566;2023-07-13T01:34:19;97861.00;;;19.90
15062;BMP180;7630;50.306;8.566;2023-07-13T01:38:22;97851.00;;;19.80
15062;BMP180;7630;50.306;8.566;2023-07-13T01:42:23;97840.00;;;19.20
15062;BMP180;7630;50.306;8.566;2023-07-13T01:46:24;97847.00;;;19.50
15062;BMP180;7630;50.306;8.566;2023-07-13T01:50:27;97850.00;;;19.40
15062;BMP180;7630;50.306;8.566;2023-07-13T01:54:28;97853.00;;;19.70
15062;BMP180;7630;50.306;8.566;2023-07-13T01:58:29;97850.00;;;19.50
15062;BMP180;7630;50.306;8.566;2023-07-13T02:02:31;97850.00;;;19.50
15062;BMP180;7630;50.306;8.566;2023-07-13T02:06:32;97862.00;;;19.20
15062;BMP180;7630;50.306;8.566;2023-07-13T02:10:33;97863.00;;;19.90
15062;BMP180;7630;50.306;8.566;2023-07-13T02:14:35;97862.00;;;19.80
15062;BMP180;7630;50.306;8.566;2023-07-13T02:18:37;97868.00;;;19.70
15062;BMP180;7630;50.306;8.566;2023-07-13T02:22:38;97856.00;;;19.60
15062;BMP180;7630;50.306;8.566;2023-07-13T02:26:39;97857.00;;;19.90
15062;BMP180;7630;50.306;8.566;2023-07-13T02:30:40;97863.00;;;19.80
15062;BMP180;7630;50.306;8.566;2023-07-13T02:34:42;97856.00;;;19.50
15062;BMP180;7630;50.306;8.566;2023-07-13T02:38:43;97862.00;;;19.90
15062;BMP180;7630;50.306;8.566;2023-07-13T02:42:44;97859.00;;;19.90
15062;BMP180;7630;50.306;8.566;2023-07-13T02:46:45;97856.00;;;19.40
15062;BMP180;7630;50.306;8.566;2023-07-13T02:50:46;97847.00;;;19.40
15062;BMP180;7630;50.306;8.566;2023-07-13T02:54:48;97851.00;;;19.10
15062;BMP180;7630;50.306;8.566;2023-07-13T02:58:49;97854.00;;;18.70
15062;BMP180;7630;50.306;8.566;2023-07-13T03:02:50;97849.00;;;18.70
15062;BMP180;7630;50.306;8.566;2023-07-13T03:06:51;97855.00;;;19.10
15062;BMP180;7630;50.306;8.566;2023-07-13T03:11:01;97868.00;;;19.20
15062;BMP180;7630;50.306;8.566;2023-07-13T03:15:03;97871.00;;;19.20
15062;BMP180;7630;50.306;8.566;2023-07-13T03:19:04;97874.00;;;18.50
15062;BMP180;7630;50.306;8.566;2023-07-13T03:23:06;97875.00;;;18.30
15062;BMP180;7630;50.306;8.566;2023-07-13T03:27:07;97873.00;;;18.50
15062;BMP180;7630;50.306;8.566;2023-07-13T03:31:18;97877.00;;;18.40
15062;BMP180;7630;50.306;8.566;2023-07-13T03:35:19;97890.00;;;18.10
15062;BMP180;7630;50.306;8.566;2023-07-13T03:39:20;97888.00;;;18.10
15062;BMP180;7630;50.306;8.566;2023-07-13T03:43:22;97897.00;;;17.90
15062;BMP180;7630;50.306;8.566;2023-07-13T03:47:23;97905.00;;;17.70
15062;BMP180;7630;50.306;8.566;2023-07-13T03:51:24;97907.00;;;17.80
15062;BMP180;7630;50.306;8.566;2023-07-13T03:55:25;97911.00;;;18.10
15062;BMP180;7630;50.306;8.566;2023-07-13T03:59:27;97912.00;;;18.20
15062;BMP180;7630;50.306;8.566;2023-07-13T04:03:29;97915.00;;;18.20
15062;BMP180;7630;50.306;8.566;2023-07-13T04:07:32;97911.00;;;18.00
15062;BMP180;7630;50.306;8.566;2023-07-13T04:11:34;97817.00;;;17.80
15062;BMP180;7630;50.306;8.566;2023-07-13T04:15:38;97898.00;;;18.40
15062;BMP180;7630;50.306;8.566;2023-07-13T04:19:39;97903.00;;;18.30
15062;BMP180;7630;50.306;8.566;2023-07-13T04:23:41;97907.00;;;18.40
15062;BMP180;7630;50.306;8.566;2023-07-13T04:27:42;97904.00;;;17.70
15062;BMP180;7630;50.306;8.566;2023-07-13T04:31:43;97906.00;;;18.10
15062;BMP180;7630;50.306;8.566;2023-07-13T04:35:44;97906.00;;;18.30
15062;BMP180;7630;50.306;8.566;2023-07-13T04:39:47;97907.00;;;18.70
15062;BMP180;7630;50.306;8.566;2023-07-13T04:43:48;97908.00;;;18.60
15062;BMP180;7630;50.306;8.566;2023-07-13T04:47:49;97907.00;;;18.80
15062;BMP180;7630;50.306;8.566;2023-07-13T04:51:51;97917.00;;;19.10
15062;BMP180;7630;50.306;8.566;2023-07-13T04:55:52;97907.00;;;19.30
15062;BMP180;7630;50.306;8.566;2023-07-13T04:59:53;97912.00;;;19.30
15062;BMP180;7630;50.306;8.566;2023-07-13T05:03:55;97918.00;;;19.80
15062;BMP180;7630;50.306;8.566;2023-07-13T05:07:58;97927.00;;;19.20
15062;BMP180;7630;50.306;8.566;2023-07-13T05:11:59;97923.00;;;20.00
15062;BMP180;7630;50.306;8.566;2023-07-13T05:16:02;97925.00;;;19.50
15062;BMP180;7630;50.306;8.566;2023-07-13T05:20:05;97928.00;;;19.80
15062;BMP180;7630;50.306;8.566;2023-07-13T05:24:06;97932.00;;;19.70
15062;BMP180;7630;50.306;8.566;2023-07-13T05:28:09;97927.00;;;19.60
15062;BMP180;7630;50.306;8.566;2023-07-13T05:32:10;97936.00;;;20.20
15062;BMP180;7630;50.306;8.566;2023-07-13T05:36:12;97933.00;;;20.30
15062;BMP180;7630;50.306;8.566;2023-07-13T05:40:13;97933.00;;;20.30
15062;BMP180;7630;50.306;8.566;2023-07-13T05:44:14;97932.00;;;21.30
15062;BMP180;7630;50.306;8.566;2023-07-13T05:48:15;97934.00;;;20.50
15062;BMP180;7630;50.306;8.566;2023-07-13T05:52:16;97938.00;;;20.90
15062;BMP180;7630;50.306;8.566;2023-07-13T05:56:17;97933.00;;;20.90
15062;BMP180;7630;50.306;8.566;2023-07-13T06:00:19;97940.00;;;21.40
15062;BMP180;7630;50.306;8.566;2023-07-13T06:04:20;97943.00;;;23.70
15062;BMP180;7630;50.306;8.566;2023-07-13T06:08:21;97946.00;;;24.10
15062;BMP180;7630;50.306;8.566;2023-07-13T06:12:23;97950.00;;;23.80
15062;BMP180;7630;50.306;8.566;2023-07-13T06:16:24;97947.00;;;25.00
15062;BMP180;7630;50.306;8.566;2023-07-13T06:20:25;97957.00;;;25.40
15062;BMP180;7630;50.306;8.566;2023-07-13T06:24:26;97951.00;;;25.70
15062;BMP180;7630;50.306;8.566;2023-07-13T06:28:28;97959.00;;;27.20
15062;BMP180;7630;50.306;8.566;2023-07-13T06:32:29;97957.00;;;24.70
15062;BMP180;7630;50.306;8.566;2023-07-13T06:36:30;97960.00;;;25.20
15062;BMP180;7630;50.306;8.566;2023-07-13T06:40:32;97961.00;;;24.70
15062;BMP180;7630;50.306;8.566;2023-07-13T06:44:33;97968.00;;;24.50
15062;BMP180;7630;50.306;8.566;2023-07-13T06:48:34;97979.00;;;23.70
15062;BMP180;7630;50.306;8.566;2023-07-13T06:52:35;97974.00;;;23.20
15062;BMP180;7630;50.306;8.566;2023-07-13T06:56:36;97977.00;;;22.40
15062;BMP180;7630;50.306;8.566;2023-07-13T07:00:37;97979.00;;;22.60
15062;BMP180;7630;50.306;8.566;2023-07-13T07:04:41;97978.00;;;23.20
15062;BMP180;7630;50.306;8.566;2023-07-13T07:08:42;97981.00;;;23.20
15062;BMP180;7630;50.306;8.566;2023-07-13T07:12:43;97988.00;;;21.80
15062;BMP180;7630;50.306;8.566;2023-07-13T07:16:45;97988.00;;;23.10
15062;BMP180;7630;50.306;8.566;2023-07-13T07:20:46;97994.00;;;23.30
15062;BMP180;7630;50.306;8.566;2023-07-13T07:24:47;97992.00;;;24.00
15062;BMP180;7630;50.306;8.566;2023-07-13T07:28:48;97992.00;;;23.10
15062;BMP180;7630;50.306;8.566;2023-07-13T07:32:51;97992.00;;;22.50
15062;BMP180;7630;50.306;8.566;2023-07-13T07:36:56;98002.00;;;23.70
15062;BMP180;7630;50.306;8.566;2023-07-13T07:41:05;98000.00;;;24.30
15062;BMP180;7630;50.306;8.566;2023-07-13T07:45:07;98002.00;;;24.50
15062;BMP180;7630;50.306;8.566;2023-07-13T07:49:08;97998.00;;;23.60
15062;BMP180;7630;50.306;8.566;2023-07-13T07:53:10;98002.00;;;23.10
15062;BMP180;7630;50.306;8.566;2023-07-13T07:57:15;98001.00;;;22.60
15062;BMP180;7630;50.306;8.566;2023-07-13T08:01:18;98002.00;;;22.40
15062;BMP180;7630;50.306;8.566;2023-07-13T08:05:21;97988.00;;;23.30
15062;BMP180;7630;50.306;8.566;2023-07-13T08:09:24;97996.00;;;23.00
15062;BMP180;7630;50.306;8.566;2023-07-13T08:13:25;98001.00;;;22.30
15062;BMP180;7630;50.306;8.566;2023-07-13T08:17:27;98005.00;;;22.90
15062;BMP180;7630;50.306;8.566;2023-07-13T08:21:28;98006.00;;;24.40
15062;BMP180;7630;50.306;8.566;2023-07-13T08:25:29;98010.00;;;24.40
15062;BMP180;7630;50.306;8.566;2023-07-13T08:29:30;97945.00;;;22.50
15062;BMP180;7630;50.306;8.566;2023-07-13T08:33:35;98005.00;;;22.70
15062;BMP180;7630;50.306;8.566;2023-07-13T08:37:37;98023.00;;;24.30
15062;BMP180;7630;50.306;8.566;2023-07-13T08:41:38;98014.00;;;24.00
15062;BMP180;7630;50.306;8.566;2023-07-13T08:45:48;98014.00;;;24.30
15062;BMP180;7630;50.306;8.566;2023-07-13T08:49:50;98024.00;;;25.00
15062;BMP180;7630;50.306;8.566;2023-07-13T08:53:56;98009.00;;;24.70
15062;BMP180;7630;50.306;8.566;2023-07-13T08:58:13;98008.00;;;25.60
15062;BMP180;7630;50.306;8.566;2023-07-13T09:02:34;98009.00;;;25.90
15062;BMP180;7630;50.306;8.566;2023-07-13T09:06:55;98009.00;;;27.00
15062;BMP180;7630;50.306;8.566;2023-07-13T09:10:57;98010.00;;;27.60
15062;BMP180;7630;50.306;8.566;2023-07-13T09:14:57;98001.00;;;25.80
15062;BMP180;7630;50.306;8.566;2023-07-13T09:19:02;98010.00;;;24.80
15062;BMP180;7630;50.306;8.566;2023-07-13T09:23:07;98015.00;;;25.90
15062;BMP180;7630;50.306;8.566;2023-07-13T09:27:21;98024.00;;;25.30
15062;BMP180;7630;50.306;8.566;2023-07-13T09:31:37;98006.00;;;25.30
15062;BMP180;7630;50.306;8.566;2023-07-13T09:35:40;98010.00;;;24.90
15062;BMP180;7630;50.306;8.566;2023-07-13T09:39:42;98012.00;;;25.90
15062;BMP180;7630;50.306;8.566;2023-07-13T09:48:10;98014.00;;;25.90
15062;BMP180;7630;50.306;8.566;2023-07-13T09:52:15;98012.00;;;27.30
15062;BMP180;7630;50.306;8.566;2023-07-13T09:56:29;98014.00;;;27.50
15062;BMP180;7630;50.306;8.566;2023-07-13T10:00:31;98012.00;;;26.80
15062;BMP180;7630;50.306;8.566;2023-07-13T10:04:34;97994.00;;;26.40
15062;BMP180;7630;50.306;8.566;2023-07-13T10:08:35;98013.00;;;26.40
15062;BMP180;7630;50.306;8.566;2023-07-13T10:12:38;98012.00;;;26.20
15062;BMP180;7630;50.306;8.566;2023-07-13T10:16:41;97998.00;;;25.50
15062;BMP180;7630;50.306;8.566;2023-07-13T10:20:44;98010.00;;;25.50
15062;BMP180;7630;50.306;8.566;2023-07-13T10:24:45;98012.00;;;25.50
15062;BMP180;7630;50.306;8.566;2023-07-13T10:28:51;98007.00;;;24.70
15062;BMP180;7630;50.306;8.566;2023-07-13T10:32:52;98016.00;;;24.90
15062;BMP180;7630;50.306;8.566;2023-07-13T10:36:54;98017.00;;;24.70
15062;BMP180;7630;50.306;8.566;2023-07-13T10:41:03;98002.00;;;24.50
15062;BMP180;7630;50.306;8.566;2023-07-13T10:45:01;98011.00;;;24.30
15062;BMP180;7630;50.306;8.566;2023-07-13T10:49:05;98004.00;;;24.20
15062;BMP180;7630;50.306;8.566;2023-07-13T10:53:19;98002.00;;;24.70
15062;BMP180;7630;50.306;8.566;2023-07-13T10:57:21;97995.00;;;25.30
15062;BMP180;7630;50.306;8.566;2023-07-13T11:01:23;98002.00;;;27.00
15062;BMP180;7630;50.306;8.566;2023-07-13T11:09:40;98008.00;;;26.00
15062;BMP180;7630;50.306;8.566;2023-07-13T11:17:54;98003.00;;;25.80
15062;BMP180;7630;50.306;8.566;2023-07-13T11:22:15;98005.00;;;26.40
15062;BMP180;7630;50.306;8.566;2023-07-13T11:34:57;97987.00;;;25.20
15062;BMP180;7630;50.306;8.566;2023-07-13T11:39:05;98012.00;;;27.00
15062;BMP180;7630;50.306;8.566;2023-07-13T11:43:06;98004.00;;;25.30
15062;BMP180;7630;50.306;8.566;2023-07-13T11:47:11;98004.00;;;25.50
15062;BMP180;7630;50.306;8.566;2023-07-13T11:51:17;98008.00;;;25.00
15062;BMP180;7630;50.306;8.566;2023-07-13T11:55:18;98005.00;;;25.80
15062;BMP180;7630;50.306;8.566;2023-07-13T11:59:20;98004.00;;;26.70
15062;BMP180;7630;50.306;8.566;2023-07-13T12:03:24;98007.00;;;26.60
15062;BMP180;7630;50.306;8.566;2023-07-13T12:07:28;97997.00;;;27.00
15062;BMP180;7630;50.306;8.566;2023-07-13T12:11:30;98009.00;;;26.80
15062;BMP180;7630;50.306;8.566;2023-07-13T12:15:43;98009.00;;;27.40
15062;BMP180;7630;50.306;8.566;2023-07-13T12:19:44;98004.00;;;28.40
15062;BMP180;7630;50.306;8.566;2023-07-13T12:23:49;98005.00;;;26.60
15062;BMP180;7630;50.306;8.566;2023-07-13T12:27:51;98016.00;;;26.20
15062;BMP180;7630;50.306;8.566;2023-07-13T12:31:52;97951.00;;;26.50
15062;BMP180;7630;50.306;8.566;2023-07-13T12:35:54;98024.00;;;28.10
15062;BMP180;7630;50.306;8.566;2023-07-13T12:39:56;98023.00;;;28.40
15062;BMP180;7630;50.306;8.566;2023-07-13T12:43:58;98033.00;;;27.10
15062;BMP180;7630;50.306;8.566;2023-07-13T12:48:14;98028.00;;;26.80
15062;BMP180;7630;50.306;8.566;2023-07-13T12:52:16;98032.00;;;27.20
15062;BMP180;7630;50.306;8.566;2023-07-13T12:56:20;98039.00;;;25.20
15062;BMP180;7630;50.306;8.566;2023-07-13T13:04:39;98036.00;;;25.80
15062;BMP180;7630;50.306;8.566;2023-07-13T13:08:40;98051.00;;;25.40
15062;BMP180;7630;50.306;8.566;2023-07-13T13:12:43;98042.00;;;25.60
15062;BMP180;7630;50.306;8.566;2023-07-13T13:16:48;98049.00;;;26.10
15062;BMP180;7630;50.306;8.566;2023-07-13T13:20:51;98053.00;;;25.70
15062;BMP180;7630;50.306;8.566;2023-07-13T13:24:52;98047.00;;;25.80
15062;BMP180;7630;50.306;8.566;2023-07-13T13:28:53;98048.00;;;26.60
15062;BMP180;7630;50.306;8.566;2023-07-13T13:32:54;98054.00;;;26.70
15062;BMP180;7630;50.306;8.566;2023-07-13T13:36:55;98056.00;;;25.90
15062;BMP180;7630;50.306;8.566;2023-07-13T13:40:58;98045.00;;;27.10
15062;BMP180;7630;50.306;8.566;2023-07-13T13:44:59;98048.00;;;28.40
15062;BMP180;7630;50.306;8.566;2023-07-13T13:49:01;98050.00;;;26.70
15062;BMP180;7630;50.306;8.566;2023-07-13T13:53:02;98049.00;;;27.20
15062;BMP180;7630;50.306;8.566;2023-07-13T13:57:04;98072.00;;;26.10
15062;BMP180;7630;50.306;8.566;2023-07-13T14:01:17;98075.00;;;27.20
15062;BMP180;7630;50.306;8.566;2023-07-13T14:05:20;98081.00;;;26.60
15062;BMP180;7630;50.306;8.566;2023-07-13T14:09:22;98074.00;;;26.10
15062;BMP180;7630;50.306;8.566;2023-07-13T14:13:28;98069.00;;;25.20
15062;BMP180;7630;50.306;8.566;2023-07-13T14:17:31;98074.00;;;25.20
15062;BMP180;7630;50.306;8.566;2023-07-13T14:21:32;98078.00;;;26.00
15062;BMP180;7630;50.306;8.566;2023-07-13T14:25:33;98070.00;;;27.00
15062;BMP180;7630;50.306;8.566;2023-07-13T14:29:34;98079.00;;;27.70
15062;BMP180;7630;50.306;8.566;2023-07-13T14:33:35;98079.00;;;26.10
15062;BMP180;7630;50.306;8.566;2023-07-13T14:37:37;98078.00;;;25.80
15062;BMP180;7630;50.306;8.566;2023-07-13T14:41:38;98084.00;;;25.50
15062;BMP180;7630;50.306;8.566;2023-07-13T14:45:41;98083.00;;;25.30
15062;BMP180;7630;50.306;8.566;2023-07-13T14:49:44;98082.00;;;26.10
15062;BMP180;7630;50.306;8.566;2023-07-13T14:53:45;98087.00;;;25.40
15062;BMP180;7630;50.306;8.566;2023-07-13T14:57:46;98082.00;;;24.80
15062;BMP180;7630;50.306;8.566;2023-07-13T15:01:49;98074.00;;;24.90
15062;BMP180;7630;50.306;8.566;2023-07-13T15:05:51;98076.00;;;26.20
15062;BMP180;7630;50.306;8.566;2023-07-13T15:09:53;98083.00;;;26.00
15062;BMP180;7630;50.306;8.566;2023-07-13T15:13:55;98076.00;;;25.80
15062;BMP180;7630;50.306;8.566;2023-07-13T15:17:56;98063.00;;;25.00
15062;BMP180;7630;50.306;8.566;2023-07-13T15:21:58;98079.00;;;25.70
15062;BMP180;7630;50.306;8.566;2023-07-13T15:25:59;98071.00;;;24.80
15062;BMP180;7630;50.306;8.566;2023-07-13T15:30:00;98075.00;;;25.80
15062;BMP180;7630;50.306;8.566;2023-07-13T15:34:03;98072.00;;;25.40
15062;BMP180;7630;50.306;8.566;2023-07-13T15:38:14;98072.00;;;24.60
15062;BMP180;7630;50.306;8.566;2023-07-13T15:42:17;98069.00;;;26.00
15062;BMP180;7630;50.306;8.566;2023-07-13T15:46:20;98067.00;;;25.40
15062;BMP180;7630;50.306;8.566;2023-07-13T15:50:25;98072.00;;;25.90
15062;BMP180;7630;50.306;8.566;2023-07-13T15:54:27;98073.00;;;25.00
15062;BMP180;7630;50.306;8.566;2023-07-13T15:58:28;98062.00;;;25.90
15062;BMP180;7630;50.306;8.566;2023-07-13T16:02:29;98061.00;;;25.40
15062;BMP180;7630;50.306;8.566;2023-07-13T16:06:37;98062.00;;;25.80
15062;BMP180;7630;50.306;8.566;2023-07-13T16:10:42;98058.00;;;27.10
15062;BMP180;7630;50.306;8.566;2023-07-13T16:14:48;98062.00;;;26.80
15062;BMP180;7630;50.306;8.566;2023-07-13T16:18:46;98067.00;;;26.30
15062;BMP180;7630;50.306;8.566;2023-07-13T16:22:54;98059.00;;;26.50
15062;BMP180;7630;50.306;8.566;2023-07-13T16:26:53;98049.00;;;25.60
15062;BMP180;7630;50.306;8.566;2023-07-13T16:30:56;98053.00;;;26.30
15062;BMP180;7630;50.306;8.566;2023-07-13T16:34:57;98057.00;;;25.50
15062;BMP180;7630;50.306;8.566;2023-07-13T16:39:00;98055.00;;;25.80
15062;BMP180;7630;50.306;8.566;2023-07-13T16:43:01;98059.00;;;26.10
15062;BMP180;7630;50.306;8.566;2023-07-13T16:47:08;98067.00;;;25.70
15062;BMP180;7630;50.306;8.566;2023-07-13T16:51:09;98060.00;;;25.10
15062;BMP180;7630;50.306;8.566;2023-07-13T16:55:12;98061.00;;;26.50
15062;BMP180;7630;50.306;8.566;2023-07-13T16:59:16;98065.00;;;25.80
15062;BMP180;7630;50.306;8.566;2023-07-13T17:03:18;98059.00;;;26.20
15062;BMP180;7630;50.306;8.566;2023-07-13T17:07:20;98063.00;;;25.50
15062;BMP180;7630;50.306;8.566;2023-07-13T17:11:22;98045.00;;;24.90
15062;BMP180;7630;50.306;8.566;2023-07-13T17:15:27;98059.00;;;25.20
15062;BMP180;7630;50.306;8.566;2023-07-13T17:19:30;98052.00;;;25.60
15062;BMP180;7630;50.306;8.566;2023-07-13T17:23:31;98047.00;;;25.40
15062;BMP180;7630;50.306;8.566;2023-07-13T17:27:36;98060.00;;;26.20
15062;BMP180;7630;50.306;8.566;2023-07-13T17:31:37;98053.00;;;24.60
15062;BMP180;7630;50.306;8.566;2023-07-13T17:35:39;98060.00;;;24.20
15062;BMP180;7630;50.306;8.566;2023-07-13T17:39:40;98064.00;;;25.10
15062;BMP180;7630;50.306;8.566;2023-07-13T17:43:46;98074.00;;;25.30
15062;BMP180;7630;50.306;8.566;2023-07-13T17:47:46;98064.00;;;24.00
15062;BMP180;7630;50.306;8.566;2023-07-13T17:51:53;98065.00;;;24.20
15062;BMP180;7630;50.306;8.566;2023-07-13T17:55:54;98069.00;;;24.40
15062;BMP180;7630;50.306;8.566;2023-07-13T17:59:55;98070.00;;;24.30
15062;BMP180;7630;50.306;8.566;2023-07-13T18:03:59;98068.00;;;25.60
15062;BMP180;7630;50.306;8.566;2023-07-13T18:08:01;98078.00;;;24.60
15062;BMP180;7630;50.306;8.566;2023-07-13T18:12:08;98081.00;;;24.30
15062;BMP180;7630;50.306;8.566;2023-07-13T18:16:16;98082.00;;;24.60
15062;BMP180;7630;50.306;8.566;2023-07-13T18:20:21;98080.00;;;25.30
15062;BMP180;7630;50.306;8.566;2023-07-13T18:24:22;98086.00;;;24.70
15062;BMP180;7630;50.306;8.566;2023-07-13T18:28:23;98081.00;;;25.10
15062;BMP180;7630;50.306;8.566;2023-07-13T18:32:25;98077.00;;;24.30
15062;BMP180;7630;50.306;8.566;2023-07-13T18:36:28;98084.00;;;24.90
15062;BMP180;7630;50.306;8.566;2023-07-13T18:40:30;98083.00;;;24.60
15062;BMP180;7630;50.306;8.566;2023-07-13T18:44:31;98084.00;;;24.20
15062;BMP180;7630;50.306;8.566;2023-07-13T18:48:33;98092.00;;;24.50
15062;BMP180;7630;50.306;8.566;2023-07-13T18:52:34;98093.00;;;24.90
15062;BMP180;7630;50.306;8.566;2023-07-13T18:56:35;98091.00;;;24.40
15062;BMP180;7630;50.306;8.566;2023-07-13T19:00:38;98088.00;;;24.40
15062;BMP180;7630;50.306;8.566;2023-07-13T19:04:40;98086.00;;;24.60
15062;BMP180;7630;50.306;8.566;2023-07-13T19:08:41;98091.00;;;24.30
15062;BMP180;7630;50.306;8.566;2023-07-13T19:12:46;98100.00;;;24.40
15062;BMP180;7630;50.306;8.566;2023-07-13T19:16:48;98090.00;;;24.20
15062;BMP180;7630;50.306;8.566;2023-07-13T19:20:52;98097.00;;;24.00
15062;BMP180;7630;50.306;8.566;2023-07-13T19:24:54;98097.00;;;23.80
15062;BMP180;7630;50.306;8.566;2023-07-13T19:28:57;98110.00;;;23.90
15062;BMP180;7630;50.306;8.566;2023-07-13T19:33:03;98113.00;;;23.80
15062;BMP180;7630;50.306;8.566;2023-07-13T19:41:22;98123.00;;;23.80
15062;BMP180;7630;50.306;8.566;2023-07-13T19:45:25;98134.00;;;23.50
15062;BMP180;7630;50.306;8.566;2023-07-13T19:49:27;98131.00;;;23.40
15062;BMP180;7630;50.306;8.566;2023-07-13T19:53:28;98141.00;;;22.70
15062;BMP180;7630;50.306;8.566;2023-07-13T19:57:30;98128.00;;;23.00
15062;BMP180;7630;50.306;8.566;2023-07-13T20:01:31;98142.00;;;22.80
15062;BMP180;7630;50.306;8.566;2023-07-13T20:05:33;98145.00;;;22.20
15062;BMP180;7630;50.306;8.566;2023-07-13T20:09:36;98142.00;;;22.40
15062;BMP180;7630;50.306;8.566;2023-07-13T20:13:39;98158.00;;;22.10
15062;BMP180;7630;50.306;8.566;2023-07-13T20:17:40;98153.00;;;22.00
15062;BMP180;7630;50.306;8.566;2023-07-13T20:21:44;98160.00;;;21.90
15062;BMP180;7630;50.306;8.566;2023-07-13T20:25:46;98166.00;;;21.40
15062;BMP180;7630;50.306;8.566;2023-07-13T20:29:50;98166.00;;;21.50
15062;BMP180;7630;50.306;8.566;2023-07-13T20:33:52;98166.00;;;21.40
15062;BMP180;7630;50.306;8.566;2023-07-13T20:37:53;98170.00;;;21.30
15062;BMP180;7630;50.306;8.566;2023-07-13T20:41:54;98167.00;;;21.70
15062;BMP180;7630;50.306;8.566;2023-07-13T20:45:57;98174.00;;;21.50
15062;BMP180;7630;50.306;8.566;2023-07-13T20:49:59;98166.00;;;21.60
15062;BMP180;7630;50.306;8.566;2023-07-13T20:54:00;98171.00;;;21.50
15062;BMP180;7630;50.306;8.566;2023-07-13T20:58:01;98175.00;;;21.00
15062;BMP180;7630;50.306;8.566;2023-07-13T21:06:26;98183.00;;;20.80
15062;BMP180;7630;50.306;8.566;2023-07-13T21:10:30;98185.00;;;21.10
15062;BMP180;7630;50.306;8.566;2023-07-13T21:14:31;98186.00;;;21.10
15062;BMP180;7630;50.306;8.566;2023-07-13T21:18:33;98193.00;;;20.60
15062;BMP180;7630;50.306;8.566;2023-07-13T21:22:34;98199.00;;;20.50
15062;BMP180;7630;50.306;8.566;2023-07-13T21:26:35;98189.00;;;20.50
15062;BMP180;7630;50.306;8.566;2023-07-13T21:30:39;98192.00;;;19.80
15062;BMP180;7630;50.306;8.566;2023-07-13T21:34:41;98200.00;;;19.80
15062;BMP180;7630;50.306;8.566;2023-07-13T21:38:43;98205.00;;;20.20
15062;BMP180;7630;50.306;8.566;2023-07-13T21:42:46;98214.00;;;19.30
15062;BMP180;7630;50.306;8.566;2023-07-13T21:46:47;98218.00;;;19.90
15062;BMP180;7630;50.306;8.566;2023-07-13T21:50:51;98223.00;;;20.10
15062;BMP180;7630;50.306;8.566;2023-07-13T21:54:53;98238.00;;;19.80
15062;BMP180;7630;50.306;8.566;2023-07-13T21:58:54;98231.00;;;19.70
15062;BMP180;7630;50.306;8.566;2023-07-13T22:02:57;98227.00;;;19.20
15062;BMP180;7630;50.306;8.566;2023-07-13T22:06:59;98231.00;;;19.10
15062;BMP180;7630;50.306;8.566;2023-07-13T22:11:09;98214.00;;;19.00
15062;BMP180;7630;50.306;8.566;2023-07-13T22:15:12;98223.00;;;19.10
15062;BMP180;7630;50.306;8.566;2023-07-13T22:19:16;98205.00;;;19.40
15062;BMP180;7630;50.306;8.566;2023-07-13T22:23:20;98216.00;;;19.50
15062;BMP180;7630;50.306;8.566;2023-07-13T22:27:22;98221.00;;;19.70
15062;BMP180;7630;50.306;8.566;2023-07-13T22:31:25;98228.00;;;19.60
15062;BMP180;7630;50.306;8.566;2023-07-13T22:35:29;98221.00;;;19.60
15062;BMP180;7630;50.306;8.566;2023-07-13T22:39:31;98215.00;;;19.00
15062;BMP180;7630;50.306;8.566;2023-07-13T22:43:32;98214.00;;;18.90
15062;BMP180;7630;50.306;8.566;2023-07-13T22:47:34;98223.00;;;19.50
15062;BMP180;7630;50.306;8.566;2023-07-13T22:51:35;98220.00;;;19.70
15062;BMP180;7630;50.306;8.566;2023-07-13T22:55:36;98219.00;;;20.00
15062;BMP180;7630;50.306;8.566;2023-07-13T22:59:38;98218.00;;;20.00
15062;BMP180;7630;50.306;8.566;2023-07-13T23:03:40;98210.00;;;20.10
15062;BMP180;7630;50.306;8.566;2023-07-13T23:07:42;98223.00;;;19.80
15062;BMP180;7630;50.306;8.566;2023-07-13T23:11:43;98213.00;;;20.00
15062;BMP180;7630;50.306;8.566;2023-07-13T23:15:45;98217.00;;;19.90
15062;BMP180;7630;50.306;8.566;2023-07-13T23:19:48;98215.00;;;19.90
15062;BMP180;7630;50.306;8.566;2023-07-13T23:23:50;98209.00;;;20.00
15062;BMP180;7630;50.306;8.566;2023-07-13T23:27:52;98206.00;;;20.00
15062;BMP180;7630;50.306;8.566;2023-07-13T23:31:54;98203.00;;;19.90
15062;BMP180;7630;50.306;8.566;2023-07-13T23:35:57;98205.00;;;19.60
15062;BMP180;7630;50.306;8.566;2023-07-13T23:39:59;98202.00;;;19.30
15062;BMP180;7630;50.306;8.566;2023-07-13T23:44:02;98208.00;;;19.40
15062;BMP180;7630;50.306;8.566;2023-07-13T23:48:14;98198.00;;;19.40
15062;BMP180;7630;50.306;8.566;2023-07-13T23:52:12;98190.00;;;19.40
15062;BMP180;7630;50.306;8.566;2023-07-13T23:56:18;98192.00;;;19.30
